createdAt,value
2023-02-23T00:02:06.028Z,74.75
2023-02-23T00:04:35.029Z,77.07
2023-02-23T00:07:02.937Z,82.22
2023-02-23T00:09:35.424Z,79.38
2023-02-23T00:12:08.729Z,82.35
2023-02-23T00:14:37.851Z,75.00
2023-02-23T00:17:10.888Z,75.72
2023-02-23T00:19:37.953Z,76.97
2023-02-23T00:22:04.970Z,71.93
2023-02-23T00:24:31.928Z,74.47
2023-02-23T00:26:58.916Z,76.38
2023-02-23T00:29:26.975Z,79.93
2023-02-23T00:31:56.103Z,74.32
2023-02-23T00:34:23.755Z,73.78
2023-02-23T00:36:55.553Z,77.57
2023-02-23T00:39:29.244Z,78.00
2023-02-23T00:42:02.752Z,77.63
2023-02-23T00:44:30.140Z,81.72
2023-02-23T00:46:57.197Z,82.70
2023-02-23T00:49:24.241Z,75.43
2023-02-23T00:51:54.620Z,74.75
2023-02-23T00:54:22.251Z,83.50
2023-02-23T00:56:50.777Z,79.07
2023-02-23T00:59:19.107Z,85.65
2023-02-23T01:01:46.397Z,88.95
2023-02-23T01:04:14.049Z,95.13
2023-02-23T01:06:42.587Z,93.35
2023-02-23T01:09:14.554Z,97.00
2023-02-23T01:11:42.376Z,95.07
2023-02-23T01:14:10.636Z,102.35
2023-02-23T01:16:38.977Z,99.03
2023-02-23T01:19:06.917Z,103.15
2023-02-23T01:21:37.905Z,102.28
2023-02-23T01:24:05.984Z,104.20
2023-02-23T01:26:43.092Z,97.60
2023-02-23T01:29:14.334Z,104.13
2023-02-23T01:31:46.120Z,106.22
2023-02-23T01:34:18.272Z,94.53
2023-02-23T01:36:45.671Z,101.38
2023-02-23T01:39:17.612Z,101.60
2023-02-23T01:41:45.563Z,95.40
2023-02-23T01:44:12.500Z,103.68
2023-02-23T01:46:43.676Z,96.95
2023-02-23T01:49:22.635Z,94.32
2023-02-23T01:51:58.213Z,94.53
2023-02-23T01:54:33.373Z,99.60
2023-02-23T01:57:04.249Z,99.78
2023-02-23T01:59:43.087Z,93.65
2023-02-23T02:02:13.327Z,98.45
2023-02-23T02:04:46.451Z,101.35
2023-02-23T02:07:19.881Z,100.30
2023-02-23T02:10:11.644Z,96.47
2023-02-23T02:12:41.430Z,92.55
2023-02-23T02:15:17.204Z,87.57
2023-02-23T02:17:59.439Z,91.75
2023-02-23T02:20:57.428Z,91.65
2023-02-23T02:24:01.046Z,89.95
2023-02-23T02:26:47.553Z,96.13
2023-02-23T02:30:04.441Z,92.05
2023-02-23T02:33:26.685Z,100.32
2023-02-23T02:36:23.805Z,93.78
2023-02-23T02:39:24.070Z,96.60
2023-02-23T02:42:08.919Z,104.72
2023-02-23T02:47:19.194Z,106.50
2023-02-23T02:50:02.787Z,98.57
2023-02-23T02:52:40.235Z,110.40
2023-02-23T02:55:27.752Z,102.57
2023-02-23T03:00:57.115Z,105.28
2023-02-23T03:04:00.329Z,111.82
2023-02-23T03:06:52.829Z,112.07
2023-02-23T03:10:09.124Z,123.47
2023-02-23T03:13:25.398Z,116.22
2023-02-23T03:16:39.013Z,120.05
2023-02-23T03:19:48.418Z,115.90
2023-02-23T03:22:53.893Z,113.57
2023-02-23T03:26:05.240Z,119.80
2023-02-23T03:29:36.073Z,120.90
2023-02-23T03:32:48.755Z,116.20
2023-02-23T03:35:47.301Z,115.88
2023-02-23T03:38:58.078Z,126.05
2023-02-23T03:41:47.305Z,115.60
2023-02-23T03:44:47.848Z,126.25
2023-02-23T03:47:40.732Z,125.22
2023-02-23T03:50:49.449Z,128.33
2023-02-23T03:53:48.453Z,121.93
2023-02-23T03:56:36.852Z,127.43
2023-02-23T03:59:25.640Z,120.75
2023-02-23T04:02:15.407Z,130.38
2023-02-23T04:05:05.270Z,131.35
2023-02-23T04:07:53.464Z,139.13
2023-02-23T04:10:43.222Z,139.05
2023-02-23T04:13:20.906Z,121.10
2023-02-23T04:16:06.546Z,142.65
2023-02-23T04:18:37.601Z,128.45
2023-02-23T04:21:06.980Z,134.75
2023-02-23T04:23:35.946Z,122.95
2023-02-23T04:26:03.064Z,139.45
2023-02-23T04:28:30.031Z,133.60
2023-02-23T04:30:57.120Z,137.27
2023-02-23T04:33:25.445Z,136.23
2023-02-23T04:35:54.448Z,147.05
2023-02-23T04:38:23.034Z,141.25
2023-02-23T04:40:50.543Z,143.55
2023-02-23T04:43:17.584Z,135.73
2023-02-23T04:45:45.026Z,146.38
2023-02-23T04:48:12.282Z,151.13
2023-02-23T04:50:39.750Z,142.32
2023-02-23T04:53:07.077Z,147.02
2023-02-23T04:55:34.210Z,134.43
2023-02-23T04:58:03.673Z,139.73
2023-02-23T05:00:31.524Z,147.60
2023-02-23T05:02:58.490Z,132.15
2023-02-23T05:05:25.845Z,143.15
2023-02-23T05:07:54.508Z,133.52
2023-02-23T05:10:21.510Z,135.45
2023-02-23T05:12:48.660Z,151.35
2023-02-23T05:15:16.112Z,137.32
2023-02-23T05:17:43.116Z,146.25
2023-02-23T05:20:12.790Z,139.98
2023-02-23T05:22:39.897Z,158.52
2023-02-23T05:25:09.066Z,160.85
2023-02-23T05:27:36.915Z,147.20
2023-02-23T05:30:07.738Z,151.00
2023-02-23T05:32:34.942Z,143.95
2023-02-23T05:35:03.115Z,132.98
2023-02-23T05:37:30.478Z,143.45
2023-02-23T05:39:57.414Z,146.35
2023-02-23T05:42:24.606Z,147.52
2023-02-23T05:44:51.643Z,154.18
2023-02-23T05:47:18.663Z,140.90
2023-02-23T05:49:46.235Z,142.43
2023-02-23T05:52:13.319Z,140.30
2023-02-23T05:54:40.276Z,150.20
2023-02-23T05:57:08.292Z,152.43
2023-02-23T05:59:35.765Z,148.60
2023-02-23T06:02:06.010Z,141.27
2023-02-23T06:04:33.961Z,160.13
2023-02-23T06:07:02.950Z,142.68
2023-02-23T06:09:29.914Z,148.40
2023-02-23T06:11:59.474Z,131.35
2023-02-23T06:14:29.190Z,133.27
2023-02-23T06:16:56.216Z,124.00
2023-02-23T06:19:23.156Z,127.18
2023-02-23T06:21:50.165Z,127.72
2023-02-23T06:24:18.046Z,128.32
2023-02-23T06:26:46.217Z,139.68
2023-02-23T06:29:14.673Z,138.57
2023-02-23T06:31:42.015Z,132.02
2023-02-23T06:34:10.334Z,141.13
2023-02-23T06:36:37.794Z,130.52
2023-02-23T06:39:06.884Z,133.52
2023-02-23T06:41:33.865Z,130.63
2023-02-23T06:44:04.615Z,129.98
2023-02-23T06:46:33.649Z,121.20
2023-02-23T06:49:00.980Z,139.48
2023-02-23T06:51:27.962Z,134.40
2023-02-23T06:53:55.005Z,144.13
2023-02-23T06:56:22.051Z,133.18
2023-02-23T06:58:49.090Z,132.63
2023-02-23T07:01:16.828Z,146.27
2023-02-23T07:03:43.950Z,140.15
2023-02-23T07:06:10.925Z,130.52
2023-02-23T07:08:38.762Z,142.13
2023-02-23T07:11:13.365Z,129.43
2023-02-23T07:13:40.651Z,131.50
2023-02-23T07:16:08.937Z,132.20
2023-02-23T07:18:36.015Z,128.88
2023-02-23T07:21:03.406Z,140.98
2023-02-23T07:23:30.414Z,131.02
2023-02-23T07:25:58.104Z,135.98
2023-02-23T07:28:27.390Z,130.90
2023-02-23T07:30:58.973Z,136.07
2023-02-23T07:33:26.149Z,152.27
2023-02-23T07:35:53.232Z,138.52
2023-02-23T07:38:20.306Z,143.85
2023-02-23T07:40:50.697Z,138.98
2023-02-23T07:43:18.197Z,140.00
2023-02-23T07:45:46.728Z,139.70
2023-02-23T07:48:14.046Z,131.98
2023-02-23T07:50:41.851Z,147.20
2023-02-23T07:53:08.942Z,142.30
2023-02-23T07:55:38.323Z,148.48
2023-02-23T07:58:06.024Z,146.25
2023-02-23T08:00:34.778Z,145.52
2023-02-23T08:03:04.065Z,146.15
2023-02-23T08:05:33.190Z,140.70
2023-02-23T08:08:00.218Z,128.43
2023-02-23T08:10:27.360Z,127.15
2023-02-23T08:12:54.332Z,119.18
2023-02-23T08:15:21.347Z,110.38
2023-02-23T08:17:48.317Z,120.53
2023-02-23T08:20:15.279Z,118.38
2023-02-23T08:22:49.417Z,125.63
2023-02-23T08:25:18.035Z,112.88
2023-02-23T08:27:45.576Z,112.10
2023-02-23T08:30:14.434Z,102.65
2023-02-23T08:32:41.857Z,97.07
2023-02-23T08:35:11.178Z,104.70
2023-02-23T08:37:38.139Z,92.03
2023-02-23T08:40:06.062Z,101.35
2023-02-23T08:42:32.993Z,98.43
2023-02-23T08:45:01.413Z,88.78
2023-02-23T08:47:33.132Z,88.13
2023-02-23T08:50:00.543Z,90.05
2023-02-23T08:52:30.224Z,91.93
2023-02-23T08:54:57.684Z,90.35
2023-02-23T08:57:24.654Z,98.90
2023-02-23T08:59:54.169Z,104.20
2023-02-23T09:02:22.264Z,104.80
2023-02-23T09:04:50.497Z,98.03
2023-02-23T09:07:17.889Z,103.50
2023-02-23T09:09:44.898Z,99.82
2023-02-23T09:12:11.865Z,130.02
2023-02-23T09:14:38.997Z,108.82
2023-02-23T09:17:06.001Z,103.90
2023-02-23T09:19:32.941Z,113.57
2023-02-23T09:21:59.921Z,109.07
2023-02-23T09:24:27.032Z,111.63
2023-02-23T09:26:53.978Z,110.25
2023-02-23T09:29:21.591Z,100.38
2023-02-23T09:31:51.288Z,105.45
2023-02-23T09:34:19.803Z,99.85
2023-02-23T09:36:46.785Z,102.53
2023-02-23T09:39:15.044Z,100.38
2023-02-23T09:42:10.235Z,89.05
2023-02-23T09:47:32.879Z,97.53
2023-02-23T09:50:06.079Z,100.22
2023-02-23T09:52:42.589Z,98.32
2023-02-23T09:55:14.172Z,80.15
2023-02-23T09:57:48.566Z,85.10
2023-02-23T10:00:27.345Z,91.22
2023-02-23T10:03:33.300Z,80.93
2023-02-23T10:06:07.705Z,78.93
2023-02-23T10:09:24.499Z,81.80
2023-02-23T10:12:19.495Z,79.22
2023-02-23T10:15:14.315Z,80.57
2023-02-23T10:18:16.808Z,89.00
2023-02-23T10:21:19.569Z,86.93
2023-02-23T10:24:02.011Z,83.95
2023-02-23T10:26:44.059Z,81.97
2023-02-23T10:29:25.481Z,88.38
2023-02-23T10:31:59.914Z,83.18
2023-02-23T10:37:11.401Z,81.72
2023-02-23T10:39:42.211Z,80.07
2023-02-23T10:42:19.396Z,85.63
2023-02-23T10:44:46.870Z,83.50
2023-02-23T10:47:20.762Z,86.78
2023-02-23T10:49:57.068Z,83.43
2023-02-23T10:52:41.714Z,74.95
2023-02-23T10:58:17.010Z,70.65
2023-02-23T11:01:05.748Z,76.70
2023-02-23T11:03:42.439Z,61.78
2023-02-23T11:06:43.028Z,61.33
2023-02-23T11:09:44.523Z,63.03
2023-02-23T11:12:25.486Z,60.95
2023-02-23T11:14:56.754Z,66.40
2023-02-23T11:17:35.198Z,66.35
2023-02-23T11:20:36.655Z,66.13
2023-02-23T11:23:15.948Z,67.93
2023-02-23T11:25:46.426Z,63.92
2023-02-23T11:28:31.923Z,67.18
2023-02-23T11:31:18.374Z,68.25
2023-02-23T11:33:48.362Z,72.72
2023-02-23T11:36:37.267Z,79.43
2023-02-23T11:39:16.671Z,78.97
2023-02-23T11:41:44.105Z,71.25
2023-02-23T11:44:24.372Z,77.47
2023-02-23T11:46:52.475Z,71.47
2023-02-23T11:49:35.976Z,74.70
2023-02-23T11:52:03.515Z,68.60
2023-02-23T11:54:34.051Z,78.40
2023-02-23T11:57:06.207Z,62.40
2023-02-23T11:59:39.482Z,68.35
2023-02-23T12:02:24.900Z,64.07
2023-02-23T12:05:07.181Z,56.50
2023-02-23T12:07:44.288Z,60.65
2023-02-23T12:10:42.142Z,63.00
2023-02-23T12:13:17.989Z,57.58
2023-02-23T12:16:05.557Z,58.63
2023-02-23T12:18:53.183Z,56.38
2023-02-23T12:21:39.855Z,54.60
2023-02-23T12:24:25.541Z,56.65
2023-02-23T12:27:06.235Z,55.15
2023-02-23T12:29:55.469Z,54.20
2023-02-23T12:32:34.431Z,54.33
2023-02-23T12:35:31.827Z,49.30
2023-02-23T12:38:06.409Z,46.28
2023-02-23T12:40:39.049Z,46.88
2023-02-23T12:43:20.283Z,47.85
2023-02-23T12:46:02.284Z,45.47
2023-02-23T12:48:38.442Z,43.97
2023-02-23T12:51:22.557Z,50.85
2023-02-23T12:53:49.866Z,43.15
2023-02-23T12:56:42.452Z,39.65
2023-02-23T12:59:25.343Z,40.17
2023-02-23T13:02:08.505Z,42.13
2023-02-23T13:05:06.693Z,43.78
2023-02-23T13:08:12.851Z,44.42
2023-02-23T13:11:03.082Z,41.15
2023-02-23T13:14:05.151Z,43.95
2023-02-23T13:17:09.891Z,42.28
2023-02-23T13:20:26.556Z,40.13
2023-02-23T13:23:23.997Z,36.80
2023-02-23T13:25:57.535Z,39.53
2023-02-23T13:28:40.402Z,41.83
2023-02-23T13:31:23.780Z,44.63
2023-02-23T13:33:54.482Z,40.70
2023-02-23T13:36:23.562Z,41.03
2023-02-23T13:39:40.849Z,37.55
2023-02-23T13:42:31.052Z,29.20
2023-02-23T13:45:25.950Z,27.95
2023-02-23T13:50:57.284Z,27.45
2023-02-23T13:53:47.043Z,26.08
2023-02-23T13:56:25.150Z,31.88
2023-02-23T13:59:02.341Z,38.05
2023-02-23T14:01:39.608Z,28.02
2023-02-23T14:04:15.755Z,24.30
2023-02-23T14:07:00.973Z,31.35
2023-02-23T14:09:37.131Z,29.70
2023-02-23T14:12:40.765Z,29.02
2023-02-23T14:15:27.222Z,26.63
2023-02-23T14:18:29.803Z,28.20
2023-02-23T14:21:26.589Z,28.55
2023-02-23T14:24:22.761Z,29.90
2023-02-23T14:27:08.372Z,26.30
2023-02-23T14:29:44.661Z,19.20
2023-02-23T14:32:11.693Z,19.02
2023-02-23T14:35:00.960Z,18.63
2023-02-23T14:37:42.577Z,16.98
2023-02-23T14:40:21.448Z,18.85
2023-02-23T14:42:58.622Z,19.38
2023-02-23T14:45:38.676Z,22.63
2023-02-23T14:48:13.024Z,18.00
2023-02-23T14:53:22.012Z,29.20
2023-02-23T14:55:49.802Z,28.55
2023-02-23T14:58:35.275Z,23.77
2023-02-23T15:01:02.209Z,30.05
2023-02-23T15:03:30.379Z,24.45
2023-02-23T15:06:00.337Z,20.23
2023-02-23T15:08:30.865Z,22.92
2023-02-23T15:11:10.789Z,20.58
2023-02-23T15:13:43.622Z,20.65
2023-02-23T15:16:31.982Z,26.48
2023-02-23T15:19:03.837Z,27.55
2023-02-23T15:21:31.009Z,20.45
2023-02-23T15:24:40.755Z,18.63
2023-02-23T15:27:18.949Z,16.70
2023-02-23T15:29:47.457Z,18.25
2023-02-23T15:32:24.965Z,21.77
2023-02-23T15:34:55.945Z,16.83
2023-02-23T15:37:39.103Z,17.63
2023-02-23T15:40:19.106Z,14.93
2023-02-23T15:42:54.122Z,14.85
2023-02-23T15:45:30.352Z,19.38
2023-02-23T15:48:05.212Z,15.98
2023-02-23T15:50:43.153Z,19.45
2023-02-23T15:53:30.283Z,9.40
2023-02-23T15:56:16.607Z,10.68
2023-02-23T15:58:56.967Z,8.05
2023-02-23T16:01:29.293Z,10.75
2023-02-23T16:04:22.045Z,11.88
2023-02-23T16:06:53.359Z,11.23
2023-02-23T16:09:26.324Z,10.40
2023-02-23T16:12:05.318Z,11.23
2023-02-23T16:14:56.632Z,11.57
2023-02-23T16:17:57.723Z,11.75
2023-02-23T16:20:43.173Z,14.68
2023-02-23T16:23:37.118Z,12.38
2023-02-23T16:26:17.649Z,14.02
2023-02-23T16:28:47.022Z,15.45
2023-02-23T16:31:26.986Z,11.98
2023-02-23T16:33:57.361Z,16.30
2023-02-23T16:36:40.970Z,14.25
2023-02-23T16:39:12.701Z,13.05
2023-02-23T16:41:39.908Z,13.57
2023-02-23T16:44:16.286Z,16.25
2023-02-23T16:47:26.651Z,14.25
2023-02-23T16:49:53.638Z,14.32
2023-02-23T16:52:23.890Z,15.50
2023-02-23T16:54:55.839Z,13.82
2023-02-23T16:57:32.311Z,15.50
2023-02-23T17:00:00.397Z,17.95
2023-02-23T17:02:27.635Z,17.13
2023-02-23T17:04:58.865Z,15.50
2023-02-23T17:07:25.920Z,15.13
2023-02-23T17:09:52.958Z,16.42
2023-02-23T17:12:21.752Z,14.10
2023-02-23T17:14:49.637Z,15.50
2023-02-23T17:17:19.348Z,17.38
2023-02-23T17:19:46.734Z,17.20
2023-02-23T17:22:15.234Z,16.90
2023-02-23T17:24:43.421Z,16.23
2023-02-23T17:27:11.520Z,17.67
2023-02-23T17:29:38.689Z,16.95
2023-02-23T17:32:06.377Z,16.58
2023-02-23T17:34:33.614Z,20.42
2023-02-23T17:37:04.924Z,17.27
2023-02-23T17:39:33.289Z,17.27
2023-02-23T17:42:00.670Z,16.80
2023-02-23T17:44:27.649Z,16.58
2023-02-23T17:46:54.679Z,17.10
2023-02-23T17:49:21.689Z,15.77
2023-02-23T17:51:48.677Z,18.27
2023-02-23T17:54:15.834Z,15.80
2023-02-23T17:56:43.604Z,17.98
2023-02-23T17:59:10.609Z,19.50
2023-02-23T18:01:37.747Z,21.23
2023-02-23T18:04:05.020Z,21.33
2023-02-23T18:06:32.123Z,18.00
2023-02-23T18:08:59.089Z,24.70
2023-02-23T18:11:26.384Z,19.17
2023-02-23T18:13:53.627Z,20.35
2023-02-23T18:16:21.651Z,20.90
2023-02-23T18:18:49.349Z,25.13
2023-02-23T18:21:21.160Z,22.02
2023-02-23T18:23:49.729Z,19.75
2023-02-23T18:26:22.812Z,26.08
2023-02-23T18:28:51.054Z,22.40
2023-02-23T18:31:25.397Z,24.15
2023-02-23T18:36:35.542Z,23.83
2023-02-23T18:39:06.618Z,27.95
2023-02-23T18:41:34.002Z,20.20
2023-02-23T18:44:04.800Z,23.00
2023-02-23T18:46:33.147Z,19.98
2023-02-23T18:49:01.874Z,22.83
2023-02-23T18:51:29.721Z,21.65
2023-02-23T18:53:56.741Z,17.77
2023-02-23T18:56:28.288Z,20.10
2023-02-23T18:59:01.498Z,17.08
2023-02-23T19:01:33.359Z,16.60
2023-02-23T19:04:02.482Z,22.92
2023-02-23T19:06:31.588Z,22.75
2023-02-23T19:09:00.366Z,22.95
2023-02-23T19:11:31.327Z,25.55
2023-02-23T19:14:03.684Z,18.23
2023-02-23T19:16:33.099Z,20.98
2023-02-23T19:19:02.648Z,21.50
2023-02-23T19:21:29.652Z,18.67
2023-02-23T19:24:01.093Z,21.40
2023-02-23T19:26:29.424Z,15.38
2023-02-23T19:28:58.243Z,12.90
2023-02-23T19:31:28.352Z,16.20
2023-02-23T19:33:57.334Z,20.58
2023-02-23T19:36:30.661Z,14.73
2023-02-23T19:39:10.809Z,14.63
2023-02-23T19:41:39.992Z,13.88
2023-02-23T19:44:07.603Z,14.43
2023-02-23T19:46:36.842Z,20.10
2023-02-23T19:49:05.526Z,19.20
2023-02-23T19:51:32.696Z,23.02
2023-02-23T19:54:00.012Z,20.58
2023-02-23T19:56:28.369Z,23.02
2023-02-23T19:58:57.537Z,25.20
2023-02-23T20:01:27.600Z,20.83
2023-02-23T20:03:56.667Z,19.88
2023-02-23T20:06:27.022Z,22.83
2023-02-23T20:08:55.075Z,22.77
2023-02-23T20:11:22.954Z,20.90
2023-02-23T20:13:53.166Z,17.23
2023-02-23T20:16:21.437Z,19.77
2023-02-23T20:18:48.513Z,18.70
2023-02-23T20:21:20.358Z,25.38
2023-02-23T20:23:47.641Z,19.48
2023-02-23T20:26:20.886Z,21.45
2023-02-23T20:28:49.984Z,20.52
2023-02-23T20:31:35.114Z,23.75
2023-02-23T20:34:07.628Z,23.67
2023-02-23T20:36:34.787Z,20.02
2023-02-23T20:39:01.847Z,17.45
2023-02-23T20:41:29.832Z,25.20
2023-02-23T20:43:57.247Z,22.02
2023-02-23T20:46:24.492Z,22.17
2023-02-23T20:48:51.543Z,21.55
2023-02-23T20:51:19.667Z,23.58
2023-02-23T20:53:48.641Z,23.92
2023-02-23T20:56:18.918Z,18.95
2023-02-23T20:58:47.120Z,25.20
2023-02-23T21:01:20.427Z,20.02
2023-02-23T21:03:52.666Z,25.27
2023-02-23T21:06:22.685Z,22.80
2023-02-23T21:08:50.640Z,25.27
2023-02-23T21:11:19.886Z,21.67
2023-02-23T21:13:47.723Z,25.52
2023-02-23T21:16:18.601Z,23.27
2023-02-23T21:18:46.186Z,21.02
2023-02-23T21:21:15.626Z,18.02
2023-02-23T21:23:45.364Z,23.95
2023-02-23T21:26:16.003Z,23.27
2023-02-23T21:28:46.194Z,18.98
2023-02-23T21:31:14.992Z,16.73
2023-02-23T21:33:43.896Z,23.33
2023-02-23T21:36:13.334Z,26.80
2023-02-23T21:38:43.518Z,28.60
2023-02-23T21:41:13.274Z,24.63
2023-02-23T21:43:42.812Z,22.60
2023-02-23T21:46:16.589Z,24.77
2023-02-23T21:48:44.612Z,23.10
2023-02-23T21:51:16.049Z,20.38
2023-02-23T21:53:45.582Z,29.27
2023-02-23T21:56:21.081Z,23.70
2023-02-23T21:58:54.968Z,26.35
2023-02-23T22:01:30.139Z,22.63
2023-02-23T22:03:57.934Z,26.33
2023-02-23T22:06:30.196Z,21.60
2023-02-23T22:08:57.673Z,25.02
2023-02-23T22:11:28.156Z,20.38
2023-02-23T22:13:59.061Z,24.90
2023-02-23T22:16:36.603Z,28.45
2023-02-23T22:19:06.351Z,27.33
2023-02-23T22:21:38.779Z,26.60
2023-02-23T22:24:07.425Z,25.75
2023-02-23T22:26:38.409Z,25.50
2023-02-23T22:29:07.109Z,25.00
2023-02-23T22:31:34.337Z,30.17
2023-02-23T22:34:01.719Z,22.73
2023-02-23T22:36:29.542Z,29.77
2023-02-23T22:39:00.311Z,21.08
2023-02-23T22:41:29.642Z,28.42
2023-02-23T22:43:57.738Z,31.27
2023-02-23T22:46:26.314Z,31.80
2023-02-23T22:48:53.578Z,27.95
2023-02-23T22:51:20.934Z,24.02
2023-02-23T22:53:48.260Z,27.10
2023-02-23T22:56:19.170Z,23.23
2023-02-23T22:58:49.651Z,32.58
2023-02-23T23:01:17.579Z,36.72
2023-02-23T23:03:47.311Z,36.17
2023-02-23T23:06:22.844Z,34.45
2023-02-23T23:08:54.730Z,32.60
2023-02-23T23:11:26.673Z,28.33
2023-02-23T23:14:02.836Z,25.13
2023-02-23T23:16:33.751Z,24.92
2023-02-23T23:19:12.885Z,23.00
2023-02-23T23:21:42.874Z,27.70
2023-02-23T23:24:13.508Z,26.52
2023-02-23T23:26:42.952Z,27.67
2023-02-23T23:29:14.451Z,27.60
2023-02-23T23:31:46.562Z,24.00
2023-02-23T23:34:16.617Z,27.85
2023-02-23T23:36:48.839Z,25.70
2023-02-23T23:39:18.475Z,21.92
2023-02-23T23:41:48.219Z,32.63
2023-02-23T23:44:29.192Z,36.20
2023-02-23T23:46:58.146Z,35.33
2023-02-23T23:49:27.996Z,39.70
2023-02-23T23:51:57.018Z,29.83
2023-02-23T23:54:33.505Z,29.02
2023-02-23T23:57:03.819Z,34.13
2023-02-23T23:59:31.828Z,34.63
